Time;durP1;ratioP1;P1;durP2;ratioP2;P2;SDS_P1;SDS_P2;PMS_P1;PMS_P2;Temp;Humidity;BMP_temperature;BMP_pressure;BME280_temperature;BME280_humidity;BME280_pressure;Samples;Min_cycle;Max_cycle;Signal;HPM_P1;HPM_P2
2022/12/23 00:01:28;;;;;;;;;;;;;;;8.89;100.00;100161.13;5284865;28;20609;-64
2022/12/23 00:03:59;;;;;;;;;;;;;;;8.88;100.00;100160.28;5286975;28;20041;-64
2022/12/23 00:06:30;;;;;;;;;;;;;;;8.90;100.00;100157.47;5291659;28;19924;-64
2022/12/23 00:09:01;;;;;;;;;;;;;;;8.89;100.00;100161.97;5291477;28;20298;-64
2022/12/23 00:11:33;;;;;;;;;;;;;;;8.90;100.00;100168.13;5295302;28;19998;-64
2022/12/23 00:16:54;;;;;;;;;;;;;;;8.91;100.00;100175.13;5294565;28;20622;-64
2022/12/23 00:19:25;;;;;;;;;;;;;;;8.91;100.00;100180.47;5292068;28;19932;-64
2022/12/23 00:21:56;;;;;;;;;;;;;;;8.91;100.00;100180.47;5293230;28;19919;-65
2022/12/23 00:24:27;;;;;;;;;;;;;;;8.92;100.00;100180.34;5290516;28;19923;-64
2022/12/23 00:26:58;;;;;;;;;;;;;;;8.92;100.00;100184.81;5289476;28;20402;-64
2022/12/23 00:29:30;;;;;;;;;;;;;;;8.92;100.00;100179.50;5281996;28;19920;-64
2022/12/23 00:32:01;;;;;;;;;;;;;;;8.92;100.00;100183.00;5287834;28;19924;-64
2022/12/23 00:34:32;;;;;;;;;;;;;;;8.93;100.00;100192.66;5291616;28;19920;-64
2022/12/23 00:37:03;;;;;;;;;;;;;;;8.93;100.00;100190.00;5294604;28;20169;-64
2022/12/23 00:45:14;;;;;;;;;;;;;;;8.93;100.00;100199.81;5288450;28;19924;-65
2022/12/23 00:50:37;;;;;;;;;;;;;;;8.92;100.00;100206.13;5292283;28;19920;-65
2022/12/23 00:53:08;;;;;;;;;;;;;;;8.91;100.00;100218.53;5288709;28;19923;-66
2022/12/23 00:55:40;;;;;;;;;;;;;;;8.91;100.00;100221.22;5283982;28;20367;-64
2022/12/23 00:58:11;;;;;;;;;;;;;;;8.91;100.00;100220.38;5282823;28;19923;-64
2022/12/23 01:06:23;;;;;;;;;;;;;;;8.91;100.00;100226.53;5286604;28;19928;-65
2022/12/23 01:08:54;;;;;;;;;;;;;;;8.91;100.00;100234.50;5288254;28;19920;-65
2022/12/23 01:11:25;;;;;;;;;;;;;;;8.91;100.00;100221.22;5280133;28;20401;-65
2022/12/23 01:13:57;;;;;;;;;;;;;;;8.94;100.00;100233.44;5288397;28;19921;-65
2022/12/23 01:16:28;;;;;;;;;;;;;;;8.92;100.00;100230.06;5279606;28;20328;-65
2022/12/23 01:18:59;;;;;;;;;;;;;;;8.90;100.00;100227.50;5284310;28;19924;-65
2022/12/23 01:21:30;;;;;;;;;;;;;;;8.90;100.00;100229.31;5284402;28;20018;-65
2022/12/23 01:24:02;;;;;;;;;;;;;;;8.91;100.00;100229.19;5285216;28;19931;-65
2022/12/23 01:26:33;;;;;;;;;;;;;;;8.90;100.00;100232.84;5284306;28;20227;-65
2022/12/23 01:29:04;;;;;;;;;;;;;;;8.89;100.00;100231.13;5286914;28;19916;-65
2022/12/23 01:31:36;;;;;;;;;;;;;;;8.90;100.00;100240.81;5286040;28;20324;-65
2022/12/23 01:34:07;;;;;;;;;;;;;;;8.90;100.00;100234.63;5285386;28;19978;-65
2022/12/23 01:36:38;;;;;;;;;;;;;;;8.91;100.00;100236.34;5284066;28;19916;-65
2022/12/23 01:39:09;;;;;;;;;;;;;;;8.89;100.00;100231.13;5290801;28;20408;-65
2022/12/23 01:44:49;;;;;;;;;;;;;;;8.90;100.00;100240.81;5284236;28;19924;-65
2022/12/23 01:47:33;;;;;;;;;;;;;;;8.89;100.00;100249.75;5281870;28;19934;-65
2022/12/23 01:50:10;;;;;;;;;;;;;;;8.90;100.00;100250.59;5284487;28;20302;-65
2022/12/23 01:53:01;;;;;;;;;;;;;;;8.88;100.00;100253.41;5284486;28;20330;-65
2022/12/23 01:55:35;;;;;;;;;;;;;;;8.88;100.00;100249.88;5292011;28;19927;-65
2022/12/23 01:58:09;;;;;;;;;;;;;;;8.89;100.00;100262.22;5284172;28;19973;-65
2022/12/23 02:03:43;;;;;;;;;;;;;;;8.88;100.00;100265.81;5285200;28;19938;-66
2022/12/23 02:09:17;;;;;;;;;;;;;;;8.88;100.00;100273.81;5282328;28;19924;-66
2022/12/23 02:11:51;;;;;;;;;;;;;;;8.88;100.00;100277.34;5286258;28;20051;-66
2022/12/23 02:17:32;;;;;;;;;;;;;;;8.87;100.00;100272.97;5290144;28;19920;-66
2022/12/23 02:20:15;;;;;;;;;;;;;;;8.87;100.00;100280.94;5234903;28;20437;-66
2022/12/23 02:22:55;;;;;;;;;;;;;;;8.87;100.00;100272.97;5283482;28;20176;-66
2022/12/23 02:25:27;;;;;;;;;;;;;;;8.88;100.00;100276.47;5279187;28;19920;-67
2022/12/23 02:28:07;;;;;;;;;;;;;;;8.86;100.00;100281.94;5281045;28;19924;-65
2022/12/23 02:30:52;;;;;;;;;;;;;;;8.85;100.00;100277.56;5280913;28;20373;-66
2022/12/23 02:33:29;;;;;;;;;;;;;;;8.86;100.00;100283.72;5285227;28;20851;-66
2022/12/23 02:36:17;;;;;;;;;;;;;;;8.87;100.00;100296.91;5283485;28;20366;-66
2022/12/23 02:39:08;;;;;;;;;;;;;;;8.86;100.00;100302.34;5287397;28;20390;-66
2022/12/23 02:41:39;;;;;;;;;;;;;;;8.87;100.00;100309.38;5283054;28;19920;-66
2022/12/23 02:44:14;;;;;;;;;;;;;;;8.87;100.00;100318.19;5288048;28;19931;-66
2022/12/23 02:46:48;;;;;;;;;;;;;;;8.88;100.00;100327.00;5283047;28;19927;-65
2022/12/23 02:49:24;;;;;;;;;;;;;;;8.88;100.00;100329.69;5286892;28;19925;-66
2022/12/23 02:51:56;;;;;;;;;;;;;;;8.88;100.00;100335.88;5284675;28;19935;-66
2022/12/23 02:54:30;;;;;;;;;;;;;;;8.87;100.00;100339.47;5289379;28;19928;-65
2022/12/23 02:57:04;;;;;;;;;;;;;;;8.87;100.00;100339.47;5290957;28;19927;-65
2022/12/23 02:59:37;;;;;;;;;;;;;;;8.87;100.00;100335.97;5284133;28;19971;-66
2022/12/23 03:02:09;;;;;;;;;;;;;;;8.88;100.00;100335.00;5286080;28;20290;-66
2022/12/23 03:04:41;;;;;;;;;;;;;;;8.88;100.00;100337.66;5287964;28;19924;-66
2022/12/23 03:07:18;;;;;;;;;;;;;;;8.87;100.00;100328.84;5299463;28;19920;-65
2022/12/23 03:09:55;;;;;;;;;;;;;;;8.87;100.00;100338.63;5290913;28;19916;-66
2022/12/23 03:12:34;;;;;;;;;;;;;;;8.87;100.00;100347.47;5293590;28;20314;-66
2022/12/23 03:15:26;;;;;;;;;;;;;;;8.86;100.00;100342.25;5287035;28;20456;-66
2022/12/23 03:18:12;;;;;;;;;;;;;;;8.86;100.00;100343.13;5292400;28;20404;-66
2022/12/23 03:20:49;;;;;;;;;;;;;;;8.86;100.00;100329.81;5286307;28;19929;-66
2022/12/23 03:23:27;;;;;;;;;;;;;;;8.86;100.00;100334.28;5288691;28;19949;-66
2022/12/23 03:26:01;;;;;;;;;;;;;;;8.86;100.00;100334.28;5286836;28;19931;-66
2022/12/23 03:28:38;;;;;;;;;;;;;;;8.86;100.00;100335.13;5295853;28;19916;-65
2022/12/23 03:31:13;;;;;;;;;;;;;;;8.86;100.00;100328.94;5287795;28;19952;-65
2022/12/23 03:33:47;;;;;;;;;;;;;;;8.85;100.00;100319.28;5293013;28;20288;-66
2022/12/23 03:36:22;;;;;;;;;;;;;;;8.83;100.00;100322.91;5296313;28;20050;-65
2022/12/23 03:38:54;;;;;;;;;;;;;;;8.83;100.00;100328.22;5294556;28;19978;-65
2022/12/23 03:41:29;;;;;;;;;;;;;;;8.83;100.00;100338.88;5295557;28;19920;-66
2022/12/23 03:44:04;;;;;;;;;;;;;;;8.82;100.00;100331.88;5289362;28;20007;-64
2022/12/23 03:47:01;;;;;;;;;;;;;;;8.81;100.00;100324.84;5289419;28;20281;-66
2022/12/23 03:49:36;;;;;;;;;;;;;;;8.82;100.00;100320.34;5280314;28;19916;-66
2022/12/23 03:52:12;;;;;;;;;;;;;;;8.82;100.00;100333.66;5294977;28;19919;-66
2022/12/23 03:54:54;;;;;;;;;;;;;;;8.81;100.00;100334.63;5295146;28;19924;-66
2022/12/23 03:57:30;;;;;;;;;;;;;;;8.81;100.00;100338.13;5291664;28;19920;-66
2022/12/23 04:00:01;;;;;;;;;;;;;;;8.80;100.00;100332.94;5274585;28;19931;-66
2022/12/23 04:02:32;;;;;;;;;;;;;;;8.79;100.00;100340.06;5301787;28;20429;-66
2022/12/23 04:05:10;;;;;;;;;;;;;;;8.79;100.00;100348.06;5292193;28;19920;-66
2022/12/23 04:08:00;;;;;;;;;;;;;;;8.77;100.00;100344.66;5289808;28;20359;-66
2022/12/23 04:10:32;;;;;;;;;;;;;;;8.77;100.00;100342.00;5295517;28;19956;-65
2022/12/23 04:13:03;;;;;;;;;;;;;;;8.78;100.00;100349.03;5293439;28;20015;-66
2022/12/23 04:15:38;;;;;;;;;;;;;;;8.77;100.00;100351.81;5285207;28;19930;-65
2022/12/23 04:18:09;;;;;;;;;;;;;;;8.76;100.00;100352.75;5277631;28;19924;-65
2022/12/23 04:20:40;;;;;;;;;;;;;;;8.75;100.00;100359.91;5293968;28;19930;-66
2022/12/23 04:23:12;;;;;;;;;;;;;;;8.75;100.00;100356.41;5289238;28;20006;-65
2022/12/23 04:25:43;;;;;;;;;;;;;;;8.73;100.00;100367.16;5286746;28;19970;-65
2022/12/23 04:28:14;;;;;;;;;;;;;;;8.73;100.00;100376.94;5288022;28;19926;-65
2022/12/23 04:30:45;;;;;;;;;;;;;;;8.73;100.00;100380.44;5286316;28;19927;-66
2022/12/23 04:33:16;;;;;;;;;;;;;;;8.71;100.00;100377.06;5286412;28;20057;-65
2022/12/23 04:35:48;;;;;;;;;;;;;;;8.72;100.00;100385.88;5287028;28;19915;-65
2022/12/23 04:38:19;;;;;;;;;;;;;;;8.72;100.00;100388.53;5287856;28;20278;-65
2022/12/23 04:40:50;;;;;;;;;;;;;;;8.71;100.00;100378.88;5288030;28;19927;-65
2022/12/23 04:43:21;;;;;;;;;;;;;;;8.71;100.00;100382.38;5286752;28;19966;-65
2022/12/23 04:45:52;;;;;;;;;;;;;;;8.70;100.00;100375.34;5287695;28;19916;-65
2022/12/23 04:48:24;;;;;;;;;;;;;;;8.69;100.00;100363.03;5279010;28;19963;-66
2022/12/23 04:50:55;;;;;;;;;;;;;;;8.69;100.00;100363.03;5279933;28;19924;-66
2022/12/23 04:53:26;;;;;;;;;;;;;;;8.68;100.00;100369.31;5284194;28;20420;-66
2022/12/23 04:55:57;;;;;;;;;;;;;;;8.68;100.00;100365.81;5284442;28;19927;-65
2022/12/23 04:58:28;;;;;;;;;;;;;;;8.68;100.00;100356.00;5296042;28;20120;-66
2022/12/23 05:01:07;;;;;;;;;;;;;;;8.67;100.00;100354.31;5287638;28;19952;-65
2022/12/23 05:03:39;;;;;;;;;;;;;;;8.67;100.00;100348.13;5288749;28;19948;-66
2022/12/23 05:06:10;;;;;;;;;;;;;;;8.67;100.00;100359.66;5291248;28;20665;-66
2022/12/23 05:08:41;;;;;;;;;;;;;;;8.65;100.00;100350.94;5284086;28;19924;-66
2022/12/23 05:11:12;;;;;;;;;;;;;;;8.66;100.00;100354.44;5281735;28;19965;-66
2022/12/23 05:13:44;;;;;;;;;;;;;;;8.64;100.00;100355.38;5282456;28;19916;-66
2022/12/23 05:16:15;;;;;;;;;;;;;;;8.64;100.00;100357.22;5282526;28;20267;-66
2022/12/23 05:18:46;;;;;;;;;;;;;;;8.63;100.00;100356.38;5283916;28;21089;-66
2022/12/23 05:21:17;;;;;;;;;;;;;;;8.64;100.00;100375.81;5285892;28;19916;-65
2022/12/23 05:23:48;;;;;;;;;;;;;;;8.63;100.00;100376.81;5283499;28;20031;-66
2022/12/23 05:26:20;;;;;;;;;;;;;;;8.64;100.00;100386.47;5283627;28;20690;-66
2022/12/23 05:28:51;;;;;;;;;;;;;;;8.63;100.00;100393.59;5272801;28;19924;-66
2022/12/23 05:31:22;;;;;;;;;;;;;;;8.64;100.00;100399.75;5293155;28;20001;-66
2022/12/23 05:33:53;;;;;;;;;;;;;;;8.64;100.00;100397.09;5288695;28;19916;-66
2022/12/23 05:36:24;;;;;;;;;;;;;;;8.64;100.00;100399.75;5281391;28;19920;-66
2022/12/23 05:38:56;;;;;;;;;;;;;;;8.64;100.00;100405.06;5284039;28;19924;-66
2022/12/23 05:41:27;;;;;;;;;;;;;;;8.63;100.00;100401.56;5282793;28;19955;-66
2022/12/23 05:43:58;;;;;;;;;;;;;;;8.65;100.00;100414.75;5283317;28;20485;-66
2022/12/23 05:46:29;;;;;;;;;;;;;;;8.63;100.00;100409.56;5289226;28;19920;-66
2022/12/23 05:49:01;;;;;;;;;;;;;;;8.64;100.00;100407.72;5286217;28;19965;-66
2022/12/23 05:51:32;;;;;;;;;;;;;;;8.66;100.00;100405.81;5282298;28;19924;-65
2022/12/23 05:54:03;;;;;;;;;;;;;;;8.66;100.00;100399.66;5288052;28;19971;-66
2022/12/23 05:56:34;;;;;;;;;;;;;;;8.65;100.00;100401.47;5287576;28;19969;-65
2022/12/23 05:59:05;;;;;;;;;;;;;;;8.67;100.00;100391.56;5290009;28;20001;-66
2022/12/23 06:01:37;;;;;;;;;;;;;;;8.67;100.00;100388.03;5294817;28;20051;-66
2022/12/23 06:04:08;;;;;;;;;;;;;;;8.66;100.00;100376.56;5288292;28;19924;-65
2022/12/23 06:06:39;;;;;;;;;;;;;;;8.66;100.00;100373.06;5284914;28;20001;-66
2022/12/23 06:09:10;;;;;;;;;;;;;;;8.66;100.00;100373.91;5281102;28;20402;-66
2022/12/23 06:11:41;;;;;;;;;;;;;;;8.65;100.00;100372.22;5276597;28;19920;-65
2022/12/23 06:14:13;;;;;;;;;;;;;;;8.65;100.00;100364.25;5284542;28;20501;-65
2022/12/23 06:16:44;;;;;;;;;;;;;;;8.65;100.00;100369.56;5287291;28;20064;-65
2022/12/23 06:19:15;;;;;;;;;;;;;;;8.65;100.00;100361.56;5286398;28;20159;-66
2022/12/23 06:21:46;;;;;;;;;;;;;;;8.66;100.00;100363.25;5285207;28;19959;-65
2022/12/23 06:24:17;;;;;;;;;;;;;;;8.66;100.00;100359.75;5287572;28;19920;-65
2022/12/23 06:26:49;;;;;;;;;;;;;;;8.65;100.00;100361.56;5285623;28;20417;-66
2022/12/23 06:29:20;;;;;;;;;;;;;;;8.64;100.00;100359.88;5285580;28;20023;-65
2022/12/23 06:31:51;;;;;;;;;;;;;;;8.64;100.00;100365.19;5283257;28;20213;-66
2022/12/23 06:34:22;;;;;;;;;;;;;;;8.63;100.00;100367.00;5288696;28;19924;-66
2022/12/23 06:36:53;;;;;;;;;;;;;;;8.63;100.00;100374.97;5287607;28;20342;-65
2022/12/23 06:39:25;;;;;;;;;;;;;;;8.62;100.00;100375.94;5291557;28;20389;-66
2022/12/23 06:41:56;;;;;;;;;;;;;;;8.62;100.00;100373.28;5284998;28;19997;-66
2022/12/23 06:44:27;;;;;;;;;;;;;;;8.61;100.00;100378.69;5284744;28;19924;-66
2022/12/23 06:46:58;;;;;;;;;;;;;;;8.61;100.00;100378.69;5283151;28;20607;-66
2022/12/23 06:49:30;;;;;;;;;;;;;;;8.61;100.00;100381.38;5280264;28;19912;-66
2022/12/23 06:52:01;;;;;;;;;;;;;;;8.60;100.00;100398.28;5282936;28;20050;-66
2022/12/23 06:54:32;;;;;;;;;;;;;;;8.60;100.00;100400.97;5282870;28;20393;-65
2022/12/23 06:57:03;;;;;;;;;;;;;;;8.61;100.00;100402.63;5274201;28;19919;-65
2022/12/23 06:59:34;;;;;;;;;;;;;;;8.60;100.00;100415.09;5283474;28;19951;-66
2022/12/23 07:02:06;;;;;;;;;;;;;;;8.62;100.00;100422.97;5274155;28;20027;-66
2022/12/23 07:04:37;;;;;;;;;;;;;;;8.62;100.00;100437.09;5286215;28;20349;-66
2022/12/23 07:07:08;;;;;;;;;;;;;;;8.62;100.00;100438.91;5288576;28;20757;-66
2022/12/23 07:09:39;;;;;;;;;;;;;;;8.60;100.00;100449.66;5286050;28;19927;-65
2022/12/23 07:12:10;;;;;;;;;;;;;;;8.61;100.00;100451.38;5283510;28;20005;-66
2022/12/23 07:14:41;;;;;;;;;;;;;;;8.61;100.00;100437.22;5287548;28;19920;-66
2022/12/23 07:17:13;;;;;;;;;;;;;;;8.60;100.00;100419.56;5289801;28;20290;-66
2022/12/23 07:19:44;;;;;;;;;;;;;;;8.61;100.00;100421.25;5285504;28;19977;-66
2022/12/23 07:22:15;;;;;;;;;;;;;;;8.61;100.00;100407.97;5285034;28;19927;-66
2022/12/23 07:24:46;;;;;;;;;;;;;;;8.60;100.00;100417.75;5288989;28;19931;-66
2022/12/23 07:27:17;;;;;;;;;;;;;;;8.62;100.00;100417.66;5284862;28;20359;-66
2022/12/23 07:29:48;;;;;;;;;;;;;;;8.60;100.00;100412.44;5286197;28;19970;-66
2022/12/23 07:32:20;;;;;;;;;;;;;;;8.62;100.00;100420.31;5283963;28;19920;-66
2022/12/23 07:34:51;;;;;;;;;;;;;;;8.59;100.00;100418.72;5283588;28;20542;-65
2022/12/23 07:37:22;;;;;;;;;;;;;;;8.60;100.00;100411.59;5285972;28;19916;-66
2022/12/23 07:39:53;;;;;;;;;;;;;;;8.61;100.00;100406.16;5287088;28;20240;-65
2022/12/23 07:42:24;;;;;;;;;;;;;;;8.61;100.00;100408.81;5277147;28;19975;-65
2022/12/23 07:44:55;;;;;;;;;;;;;;;8.62;100.00;100412.31;5281123;28;21074;-65
2022/12/23 07:47:27;;;;;;;;;;;;;;;8.64;100.00;100407.72;5288365;28;19924;-66
2022/12/23 07:49:58;;;;;;;;;;;;;;;8.63;100.00;100406.91;5284781;28;19920;-66
2022/12/23 07:52:29;;;;;;;;;;;;;;;8.63;100.00;100409.56;5280843;28;20293;-65
2022/12/23 07:55:00;;;;;;;;;;;;;;;8.64;100.00;100413.06;5286938;28;20219;-65
2022/12/23 07:57:36;;;;;;;;;;;;;;;8.64;100.00;100408.56;5287089;28;19972;-65
2022/12/23 08:00:11;;;;;;;;;;;;;;;8.64;100.00;100397.09;5284270;28;19924;-65
2022/12/23 08:02:42;;;;;;;;;;;;;;;8.65;100.00;100412.09;5283293;28;19924;-65
2022/12/23 08:05:13;;;;;;;;;;;;;;;8.63;100.00;100412.22;5278765;28;19934;-65
2022/12/23 08:07:45;;;;;;;;;;;;;;;8.61;100.00;100400.84;5287221;28;19924;-65
2022/12/23 08:10:16;;;;;;;;;;;;;;;8.62;100.00;100393.72;5281221;28;20452;-65
2022/12/23 08:12:47;;;;;;;;;;;;;;;8.62;100.00;100394.53;5283966;28;19951;-65
2022/12/23 08:15:18;;;;;;;;;;;;;;;8.63;100.00;100398.06;5291477;28;19916;-65
2022/12/23 08:17:49;;;;;;;;;;;;;;;8.63;100.00;100385.63;5282518;28;20362;-65
2022/12/23 08:20:21;;;;;;;;;;;;;;;8.66;100.00;100389.00;5285830;28;19932;-65
2022/12/23 08:22:52;;;;;;;;;;;;;;;8.66;100.00;100392.50;5285091;28;20010;-65
2022/12/23 08:25:23;;;;;;;;;;;;;;;8.67;100.00;100403.97;5288217;28;20276;-65
2022/12/23 08:27:54;;;;;;;;;;;;;;;8.68;100.00;100398.56;5281442;28;19931;-66
2022/12/23 08:30:25;;;;;;;;;;;;;;;8.67;100.00;100402.19;5287557;28;19962;-65
2022/12/23 08:32:57;;;;;;;;;;;;;;;8.69;100.00;100396.78;5280577;28;19919;-65
2022/12/23 08:35:28;;;;;;;;;;;;;;;8.68;100.00;100401.22;5273186;28;20011;-66
2022/12/23 08:38:00;;;;;;;;;;;;;;;8.69;100.00;100402.09;5283173;28;20320;-65
2022/12/23 08:40:31;;;;;;;;;;;;;;;8.66;100.00;100386.34;5287042;28;20002;-66
2022/12/23 08:43:02;;;;;;;;;;;;;;;8.68;100.00;100379.94;5288276;28;19923;-65
2022/12/23 08:45:37;;;;;;;;;;;;;;;8.68;100.00;100385.25;5288888;28;20437;-65
2022/12/23 08:48:08;;;;;;;;;;;;;;;8.69;100.00;100376.34;5284963;28;19916;-66
2022/12/23 08:50:40;;;;;;;;;;;;;;;8.68;100.00;100371.13;5284381;28;19924;-65
2022/12/23 08:53:12;;;;;;;;;;;;;;;8.69;100.00;100375.50;5292595;28;19924;-65
2022/12/23 08:55:44;;;;;;;;;;;;;;;8.70;100.00;100371.84;5287415;28;19928;-65
2022/12/23 08:58:15;;;;;;;;;;;;;;;8.70;100.00;100371.84;5290192;28;19998;-66
2022/12/23 09:00:47;;;;;;;;;;;;;;;8.69;100.00;100372.84;5282652;28;19920;-65
2022/12/23 09:03:18;;;;;;;;;;;;;;;8.67;100.00;100366.75;5284528;28;19970;-65
2022/12/23 09:05:49;;;;;;;;;;;;;;;8.67;100.00;100356.97;5271475;28;20681;-65
2022/12/23 09:08:20;;;;;;;;;;;;;;;8.65;100.00;100350.94;5290246;28;19923;-65
2022/12/23 09:10:51;;;;;;;;;;;;;;;8.66;100.00;100341.13;5275413;28;20323;-65
2022/12/23 09:13:23;;;;;;;;;;;;;;;8.64;100.00;100328.78;5268414;28;19916;-65
2022/12/23 09:15:54;;;;;;;;;;;;;;;8.64;100.00;100330.63;5291901;28;20038;-65
2022/12/23 09:18:25;;;;;;;;;;;;;;;8.64;100.00;100336.78;5287726;28;20423;-65
2022/12/23 09:21:00;;;;;;;;;;;;;;;8.63;100.00;100326.28;5292458;28;19923;-65
2022/12/23 09:23:32;;;;;;;;;;;;;;;8.64;100.00;100327.94;5286636;28;19978;-65
2022/12/23 09:26:04;;;;;;;;;;;;;;;8.62;100.00;100320.09;5286639;28;20342;-65
2022/12/23 09:28:35;;;;;;;;;;;;;;;8.65;100.00;100321.69;5282413;28;20027;-66
2022/12/23 09:31:07;;;;;;;;;;;;;;;8.66;100.00;100315.38;5284233;28;19920;-65
2022/12/23 09:33:39;;;;;;;;;;;;;;;8.67;100.00;100322.41;5287791;28;19924;-65
2022/12/23 09:36:10;;;;;;;;;;;;;;;8.67;100.00;100322.41;5280759;28;20415;-65
2022/12/23 09:38:41;;;;;;;;;;;;;;;8.66;100.00;100309.22;5276997;28;20372;-66
2022/12/23 09:41:18;;;;;;;;;;;;;;;8.66;100.00;100314.53;5285402;28;19924;-65
2022/12/23 09:44:02;;;;;;;;;;;;;;;8.66;100.00;100310.06;5266899;28;19962;-65
2022/12/23 09:46:36;;;;;;;;;;;;;;;8.67;100.00;100301.13;5282606;28;19949;-65
2022/12/23 09:49:10;;;;;;;;;;;;;;;8.66;100.00;100288.78;5283758;28;19916;-65
2022/12/23 09:51:42;;;;;;;;;;;;;;;8.66;100.00;100294.09;5291130;28;20322;-66
2022/12/23 09:54:24;;;;;;;;;;;;;;;8.66;100.00;100283.47;5292395;28;19973;-65
2022/12/23 09:57:01;;;;;;;;;;;;;;;8.64;100.00;100291.56;5275511;28;19916;-65
2022/12/23 09:59:35;;;;;;;;;;;;;;;8.67;100.00;100302.94;5283509;28;19928;-65
2022/12/23 10:02:23;;;;;;;;;;;;;;;8.69;100.00;100304.53;5287670;28;19924;-65
2022/12/23 10:04:57;;;;;;;;;;;;;;;8.71;100.00;100296.44;5285615;28;19927;-65
2022/12/23 10:07:42;;;;;;;;;;;;;;;8.72;100.00;100312.25;5282073;28;20280;-65
2022/12/23 10:10:16;;;;;;;;;;;;;;;8.69;100.00;100293.88;5279885;28;19920;-65
2022/12/23 10:12:49;;;;;;;;;;;;;;;8.71;100.00;100280.47;5285912;28;20390;-65
2022/12/23 10:15:24;;;;;;;;;;;;;;;8.71;100.00;100273.34;5279715;28;19923;-65
2022/12/23 10:17:59;;;;;;;;;;;;;;;8.71;100.00;100268.00;5283147;28;19924;-66
2022/12/23 10:20:37;;;;;;;;;;;;;;;8.69;100.00;100269.09;5280737;28;19928;-66
2022/12/23 10:23:12;;;;;;;;;;;;;;;8.69;100.00;100259.31;5277718;28;20212;-66
2022/12/23 10:25:48;;;;;;;;;;;;;;;8.69;100.00;100258.47;5284939;28;19916;-65
2022/12/23 10:28:19;;;;;;;;;;;;;;;8.68;100.00;100233.66;5278976;28;19916;-65
2022/12/23 10:30:58;;;;;;;;;;;;;;;8.69;100.00;100245.19;5285008;28;19970;-66
2022/12/23 10:33:41;;;;;;;;;;;;;;;8.71;100.00;100237.91;5286791;28;19927;-66
2022/12/23 10:36:19;;;;;;;;;;;;;;;8.73;100.00;100228.84;5286826;28;19924;-65
2022/12/23 10:39:01;;;;;;;;;;;;;;;8.74;100.00;100221.69;5280278;28;20467;-66
2022/12/23 10:41:37;;;;;;;;;;;;;;;8.76;100.00;100225.97;5282506;28;19928;-65
2022/12/23 10:44:40;;;;;;;;;;;;;;;8.81;100.00;100215.78;5280746;28;19968;-65
2022/12/23 10:47:36;;;;;;;;;;;;;;;8.86;100.00;100214.56;5244989;28;19921;-65
2022/12/23 10:50:07;;;;;;;;;;;;;;;8.87;100.00;100200.31;5288653;28;20446;-65
2022/12/23 10:52:40;;;;;;;;;;;;;;;8.89;100.00;100198.38;5286529;28;19924;-65
2022/12/23 10:55:23;;;;;;;;;;;;;;;8.88;100.00;100191.34;5282804;28;19924;-65
2022/12/23 10:57:59;;;;;;;;;;;;;;;8.88;100.00;100178.03;5284901;28;19920;-65
2022/12/23 11:00:30;;;;;;;;;;;;;;;8.88;100.00;100178.03;5286738;28;19930;-65
2022/12/23 11:03:11;;;;;;;;;;;;;;;8.88;100.00;100167.41;5282031;28;19924;-65
2022/12/23 11:05:43;;;;;;;;;;;;;;;8.86;100.00;100164.88;5289714;28;20302;-65
2022/12/23 11:08:15;;;;;;;;;;;;;;;8.86;100.00;100153.38;5285024;28;20496;-65
2022/12/23 11:10:46;;;;;;;;;;;;;;;8.86;100.00;100153.38;5285032;28;20234;-65
2022/12/23 11:13:32;;;;;;;;;;;;;;;8.87;100.00;100152.41;5286090;28;19955;-65
2022/12/23 11:16:24;;;;;;;;;;;;;;;8.85;100.00;100146.38;5281984;28;19971;-66
2022/12/23 11:19:00;;;;;;;;;;;;;;;8.85;100.00;100149.03;5283561;28;20027;-66
2022/12/23 11:21:32;;;;;;;;;;;;;;;8.83;100.00;100146.50;5288394;28;19923;-65
2022/12/23 11:24:16;;;;;;;;;;;;;;;8.83;100.00;100149.16;5285365;28;19916;-66
2022/12/23 11:26:49;;;;;;;;;;;;;;;8.83;100.00;100146.50;5286670;28;19931;-66
2022/12/23 11:29:22;;;;;;;;;;;;;;;8.80;100.00;100136.09;5291026;28;19919;-66
2022/12/23 11:31:53;;;;;;;;;;;;;;;8.80;100.00;100136.09;5286409;28;19930;-65
2022/12/23 11:34:26;;;;;;;;;;;;;;;8.78;100.00;100117.63;5292725;28;19920;-65
2022/12/23 11:36:58;;;;;;;;;;;;;;;8.78;100.00;100120.28;5287336;28;20003;-65
2022/12/23 11:39:32;;;;;;;;;;;;;;;8.79;100.00;100113.97;5297109;28;19923;-66
2022/12/23 11:42:18;;;;;;;;;;;;;;;8.79;100.00;100106.00;5291193;28;19966;-65
2022/12/23 11:44:51;;;;;;;;;;;;;;;8.78;100.00;100099.00;5294914;28;19924;-65
2022/12/23 11:47:22;;;;;;;;;;;;;;;8.80;100.00;100093.53;5282805;28;19924;-65
2022/12/23 11:49:57;;;;;;;;;;;;;;;8.78;100.00;100084.84;5296475;28;19931;-66
2022/12/23 11:52:30;;;;;;;;;;;;;;;8.76;100.00;100086.78;5286389;28;20333;-66
2022/12/23 11:55:03;;;;;;;;;;;;;;;8.73;100.00;100079.06;5290978;28;19923;-66
2022/12/23 11:57:39;;;;;;;;;;;;;;;8.71;100.00;100073.88;5286156;28;19920;-66
2022/12/23 12:00:16;;;;;;;;;;;;;;;8.69;100.00;100062.50;5281121;28;19950;-66
2022/12/23 12:02:50;;;;;;;;;;;;;;;8.67;100.00;100051.16;5298871;28;19920;-66
2022/12/23 12:05:24;;;;;;;;;;;;;;;8.67;100.00;100039.66;5291620;28;19925;-66
2022/12/23 12:08:00;;;;;;;;;;;;;;;8.66;100.00;100028.19;5296091;28;19923;-66
2022/12/23 12:10:34;;;;;;;;;;;;;;;8.64;100.00;100014.16;5284716;28;20410;-66
2022/12/23 12:13:07;;;;;;;;;;;;;;;8.62;100.00;100000.16;5292430;28;19927;-66
2022/12/23 12:15:57;;;;;;;;;;;;;;;8.64;100.00;99995.53;5285218;28;19973;-66
2022/12/23 12:18:28;;;;;;;;;;;;;;;8.63;100.00;99991.22;5284029;28;20294;-65
2022/12/23 12:21:03;;;;;;;;;;;;;;;8.64;100.00;99995.53;5290125;28;19921;-65
2022/12/23 12:23:49;;;;;;;;;;;;;;;8.66;100.00;99980.31;5282942;28;20009;-65
2022/12/23 12:26:24;;;;;;;;;;;;;;;8.68;100.00;99989.00;5293919;28;20437;-65
2022/12/23 12:28:59;;;;;;;;;;;;;;;8.70;100.00;99997.69;5280029;28;19920;-65
2022/12/23 12:31:40;;;;;;;;;;;;;;;8.73;100.00;100001.94;5282844;28;19923;-65
2022/12/23 12:34:17;;;;;;;;;;;;;;;8.73;100.00;99988.66;5288888;28;19919;-65
2022/12/23 12:37:15;;;;;;;;;;;;;;;8.73;100.00;99968.19;5284053;28;19998;-66
2022/12/23 12:39:54;;;;;;;;;;;;;;;8.76;100.00;99957.31;5270765;28;19924;-66
2022/12/23 12:42:29;;;;;;;;;;;;;;;8.77;100.00;99945.69;5279233;28;20474;-66
2022/12/23 12:45:18;;;;;;;;;;;;;;;8.80;100.00;99944.59;5284900;28;20018;-66
2022/12/23 12:47:52;;;;;;;;;;;;;;;8.81;100.00;99935.66;5284125;28;20518;-66
2022/12/23 12:50:26;;;;;;;;;;;;;;;8.81;100.00;99925.84;5286149;28;19927;-66
2022/12/23 12:53:00;;;;;;;;;;;;;;;8.81;100.00;99931.16;5282446;28;19916;-66
2022/12/23 12:55:34;;;;;;;;;;;;;;;8.80;100.00;99921.50;5282830;28;19928;-66
2022/12/23 12:58:14;;;;;;;;;;;;;;;8.80;100.00;99888.72;5284909;28;19920;-66
2022/12/23 13:01:00;;;;;;;;;;;;;;;8.77;100.00;99862.41;5286073;28;19977;-66
2022/12/23 13:03:31;;;;;;;;;;;;;;;8.76;100.00;99856.25;5285096;28;19985;-66
2022/12/23 13:06:21;;;;;;;;;;;;;;;8.75;100.00;99833.28;5283984;28;19920;-67
2022/12/23 13:09:01;;;;;;;;;;;;;;;8.75;100.00;99846.56;5287308;28;19924;-66
2022/12/23 13:11:47;;;;;;;;;;;;;;;8.75;100.00;99846.56;5289121;28;19920;-66
2022/12/23 13:14:44;;;;;;;;;;;;;;;8.75;100.00;99851.91;5287688;28;20435;-66
2022/12/23 13:17:20;;;;;;;;;;;;;;;8.76;100.00;99844.75;5263994;28;19920;-66
2022/12/23 13:19:54;;;;;;;;;;;;;;;8.74;100.00;99788.19;5285851;28;20376;-66
2022/12/23 13:22:31;;;;;;;;;;;;;;;8.69;100.00;99825.84;5281892;28;19925;-66
2022/12/23 13:25:24;;;;;;;;;;;;;;;8.68;100.00;99832.09;5279810;28;19925;-66
2022/12/23 13:27:56;;;;;;;;;;;;;;;8.67;100.00;99827.78;5282820;28;19923;-66
2022/12/23 13:30:35;;;;;;;;;;;;;;;8.64;100.00;99812.91;5281796;28;19920;-67
2022/12/23 13:33:06;;;;;;;;;;;;;;;8.64;100.00;99817.38;5281637;28;19917;-66
2022/12/23 13:36:03;;;;;;;;;;;;;;;8.63;100.00;99810.41;5292975;28;19927;-67
2022/12/23 13:38:53;;;;;;;;;;;;;;;8.63;100.00;99810.41;5282266;28;19924;-66
2022/12/23 13:41:38;;;;;;;;;;;;;;;8.62;100.00;99808.72;5289074;28;19920;-67
2022/12/23 13:44:11;;;;;;;;;;;;;;;8.60;100.00;99800.84;5281975;28;19928;-67